sensor_id;sensor_type;location;lat;lon;timestamp;temperature;humidity
24146;DHT22;12308;50.948;4.706;2022-10-31T00:00:53;15.10;99.90
24146;DHT22;12308;50.948;4.706;2022-10-31T00:03:19;15.10;99.90
24146;DHT22;12308;50.948;4.706;2022-10-31T00:05:47;15.20;99.90
24146;DHT22;12308;50.948;4.706;2022-10-31T00:08:13;15.20;99.90
24146;DHT22;12308;50.948;4.706;2022-10-31T00:10:42;15.20;99.90
24146;DHT22;12308;50.948;4.706;2022-10-31T00:13:09;15.20;99.90
24146;DHT22;12308;50.948;4.706;2022-10-31T00:15:36;15.10;99.90
24146;DHT22;12308;50.948;4.706;2022-10-31T00:18:04;15.00;99.90
24146;DHT22;12308;50.948;4.706;2022-10-31T00:20:31;15.00;99.90
24146;DHT22;12308;50.948;4.706;2022-10-31T00:23:00;15.00;99.90
24146;DHT22;12308;50.948;4.706;2022-10-31T00:25:27;15.00;99.90
24146;DHT22;12308;50.948;4.706;2022-10-31T00:27:53;15.00;99.90
24146;DHT22;12308;50.948;4.706;2022-10-31T00:30:19;14.90;99.90
24146;DHT22;12308;50.948;4.706;2022-10-31T00:32:45;14.90;99.90
24146;DHT22;12308;50.948;4.706;2022-10-31T00:35:11;14.80;99.90
24146;DHT22;12308;50.948;4.706;2022-10-31T00:37:36;14.60;99.90
24146;DHT22;12308;50.948;4.706;2022-10-31T00:40:02;14.60;99.90
24146;DHT22;12308;50.948;4.706;2022-10-31T00:42:28;14.40;99.90
24146;DHT22;12308;50.948;4.706;2022-10-31T00:44:53;14.40;99.90
24146;DHT22;12308;50.948;4.706;2022-10-31T00:47:19;14.30;99.90
24146;DHT22;12308;50.948;4.706;2022-10-31T00:49:45;14.40;99.90
24146;DHT22;12308;50.948;4.706;2022-10-31T00:52:10;14.30;99.90
24146;DHT22;12308;50.948;4.706;2022-10-31T00:54:36;14.30;99.90
24146;DHT22;12308;50.948;4.706;2022-10-31T00:57:02;14.30;99.90
24146;DHT22;12308;50.948;4.706;2022-10-31T00:59:28;14.30;99.90
24146;DHT22;12308;50.948;4.706;2022-10-31T01:01:53;14.20;99.90
24146;DHT22;12308;50.948;4.706;2022-10-31T01:04:19;14.10;99.90
24146;DHT22;12308;50.948;4.706;2022-10-31T01:06:45;14.10;99.90
24146;DHT22;12308;50.948;4.706;2022-10-31T01:09:10;14.10;99.90
24146;DHT22;12308;50.948;4.706;2022-10-31T01:11:36;14.00;99.90
24146;DHT22;12308;50.948;4.706;2022-10-31T01:14:02;13.90;99.90
24146;DHT22;12308;50.948;4.706;2022-10-31T01:16:27;13.90;99.90
24146;DHT22;12308;50.948;4.706;2022-10-31T01:18:55;13.80;99.90
24146;DHT22;12308;50.948;4.706;2022-10-31T01:21:23;13.80;99.90
24146;DHT22;12308;50.948;4.706;2022-10-31T01:23:50;13.70;99.90
24146;DHT22;12308;50.948;4.706;2022-10-31T01:26:21;13.50;99.90
24146;DHT22;12308;50.948;4.706;2022-10-31T01:28:49;13.40;99.90
24146;DHT22;12308;50.948;4.706;2022-10-31T01:31:16;13.40;99.90
24146;DHT22;12308;50.948;4.706;2022-10-31T01:33:42;13.40;99.90
24146;DHT22;12308;50.948;4.706;2022-10-31T01:36:17;13.40;99.90
24146;DHT22;12308;50.948;4.706;2022-10-31T01:38:44;13.30;99.90
24146;DHT22;12308;50.948;4.706;2022-10-31T01:41:12;13.40;99.90
24146;DHT22;12308;50.948;4.706;2022-10-31T01:44:02;13.30;99.90
24146;DHT22;12308;50.948;4.706;2022-10-31T01:46:39;13.40;99.90
24146;DHT22;12308;50.948;4.706;2022-10-31T01:49:12;13.30;99.90
24146;DHT22;12308;50.948;4.706;2022-10-31T01:51:44;13.20;99.90
24146;DHT22;12308;50.948;4.706;2022-10-31T01:54:12;13.20;99.90
24146;DHT22;12308;50.948;4.706;2022-10-31T01:56:43;13.20;99.90
24146;DHT22;12308;50.948;4.706;2022-10-31T01:59:13;13.20;99.90
24146;DHT22;12308;50.948;4.706;2022-10-31T02:01:41;13.30;99.90
24146;DHT22;12308;50.948;4.706;2022-10-31T02:04:07;13.20;99.90
24146;DHT22;12308;50.948;4.706;2022-10-31T02:09:08;13.20;99.90
24146;DHT22;12308;50.948;4.706;2022-10-31T02:11:35;13.10;99.90
24146;DHT22;12308;50.948;4.706;2022-10-31T02:14:02;13.00;99.90
24146;DHT22;12308;50.948;4.706;2022-10-31T02:16:28;13.00;99.90
24146;DHT22;12308;50.948;4.706;2022-10-31T02:18:54;13.00;99.90
24146;DHT22;12308;50.948;4.706;2022-10-31T02:21:41;13.00;99.90
24146;DHT22;12308;50.948;4.706;2022-10-31T02:32:57;13.00;99.90
24146;DHT22;12308;50.948;4.706;2022-10-31T02:35:39;12.90;99.90
24146;DHT22;12308;50.948;4.706;2022-10-31T02:40:40;12.90;99.90
24146;DHT22;12308;50.948;4.706;2022-10-31T02:43:21;12.90;99.90
24146;DHT22;12308;50.948;4.706;2022-10-31T02:45:51;12.90;99.90
24146;DHT22;12308;50.948;4.706;2022-10-31T02:48:27;12.90;99.90
24146;DHT22;12308;50.948;4.706;2022-10-31T02:50:56;12.90;99.90
24146;DHT22;12308;50.948;4.706;2022-10-31T02:53:23;12.90;99.90
24146;DHT22;12308;50.948;4.706;2022-10-31T02:55:50;12.90;99.90
24146;DHT22;12308;50.948;4.706;2022-10-31T02:58:21;12.90;99.90
24146;DHT22;12308;50.948;4.706;2022-10-31T03:00:55;12.80;99.90
24146;DHT22;12308;50.948;4.706;2022-10-31T03:03:33;12.90;99.90
24146;DHT22;12308;50.948;4.706;2022-10-31T03:06:24;12.80;99.90
24146;DHT22;12308;50.948;4.706;2022-10-31T03:12:15;12.90;99.90
24146;DHT22;12308;50.948;4.706;2022-10-31T03:15:13;12.90;99.90
24146;DHT22;12308;50.948;4.706;2022-10-31T03:17:49;12.90;99.90
24146;DHT22;12308;50.948;4.706;2022-10-31T03:20:18;12.90;99.90
24146;DHT22;12308;50.948;4.706;2022-10-31T03:22:45;12.80;99.90
24146;DHT22;12308;50.948;4.706;2022-10-31T03:25:12;12.70;99.90
24146;DHT22;12308;50.948;4.706;2022-10-31T03:27:39;12.70;99.90
24146;DHT22;12308;50.948;4.706;2022-10-31T03:30:07;12.80;99.90
24146;DHT22;12308;50.948;4.706;2022-10-31T03:32:41;12.80;99.90
24146;DHT22;12308;50.948;4.706;2022-10-31T03:35:08;12.60;99.90
24146;DHT22;12308;50.948;4.706;2022-10-31T03:37:36;12.60;99.90
24146;DHT22;12308;50.948;4.706;2022-10-31T03:40:05;12.60;99.90
24146;DHT22;12308;50.948;4.706;2022-10-31T03:42:34;12.70;99.90
24146;DHT22;12308;50.948;4.706;2022-10-31T03:45:36;12.70;99.90
24146;DHT22;12308;50.948;4.706;2022-10-31T03:48:04;12.70;99.90
24146;DHT22;12308;50.948;4.706;2022-10-31T03:50:40;12.70;99.90
24146;DHT22;12308;50.948;4.706;2022-10-31T03:53:19;12.60;99.90
24146;DHT22;12308;50.948;4.706;2022-10-31T03:55:56;12.60;99.90
24146;DHT22;12308;50.948;4.706;2022-10-31T03:58:31;12.60;99.90
24146;DHT22;12308;50.948;4.706;2022-10-31T04:01:00;12.50;99.90
24146;DHT22;12308;50.948;4.706;2022-10-31T04:03:31;12.50;99.90
24146;DHT22;12308;50.948;4.706;2022-10-31T04:06:01;12.50;99.90
24146;DHT22;12308;50.948;4.706;2022-10-31T04:08:30;12.40;99.90
24146;DHT22;12308;50.948;4.706;2022-10-31T04:10:58;12.30;99.90
24146;DHT22;12308;50.948;4.706;2022-10-31T04:13:29;12.40;99.90
24146;DHT22;12308;50.948;4.706;2022-10-31T04:15:57;12.40;99.90
24146;DHT22;12308;50.948;4.706;2022-10-31T04:18:23;12.40;99.90
24146;DHT22;12308;50.948;4.706;2022-10-31T04:21:00;12.50;99.90
24146;DHT22;12308;50.948;4.706;2022-10-31T04:23:26;12.60;99.90
24146;DHT22;12308;50.948;4.706;2022-10-31T04:25:52;12.70;99.90
24146;DHT22;12308;50.948;4.706;2022-10-31T04:28:18;12.50;99.90
24146;DHT22;12308;50.948;4.706;2022-10-31T04:30:44;12.50;99.90
24146;DHT22;12308;50.948;4.706;2022-10-31T04:33:10;12.40;99.90
24146;DHT22;12308;50.948;4.706;2022-10-31T04:35:35;12.30;99.90
24146;DHT22;12308;50.948;4.706;2022-10-31T04:38:01;12.30;99.90
24146;DHT22;12308;50.948;4.706;2022-10-31T04:40:27;12.30;99.90
24146;DHT22;12308;50.948;4.706;2022-10-31T04:42:53;12.40;99.90
24146;DHT22;12308;50.948;4.706;2022-10-31T04:45:18;12.50;99.90
24146;DHT22;12308;50.948;4.706;2022-10-31T04:47:44;12.50;99.90
24146;DHT22;12308;50.948;4.706;2022-10-31T04:50:09;12.50;99.90
24146;DHT22;12308;50.948;4.706;2022-10-31T04:52:39;12.50;99.90
24146;DHT22;12308;50.948;4.706;2022-10-31T04:55:05;12.50;99.90
24146;DHT22;12308;50.948;4.706;2022-10-31T04:57:31;12.40;99.90
24146;DHT22;12308;50.948;4.706;2022-10-31T04:59:56;12.40;99.90
24146;DHT22;12308;50.948;4.706;2022-10-31T05:02:22;12.50;99.90
24146;DHT22;12308;50.948;4.706;2022-10-31T05:04:48;12.50;99.90
24146;DHT22;12308;50.948;4.706;2022-10-31T05:07:13;12.60;99.90
24146;DHT22;12308;50.948;4.706;2022-10-31T05:09:39;12.50;99.90
24146;DHT22;12308;50.948;4.706;2022-10-31T05:12:05;12.50;99.90
24146;DHT22;12308;50.948;4.706;2022-10-31T05:14:30;12.50;99.90
24146;DHT22;12308;50.948;4.706;2022-10-31T05:16:56;12.50;99.90
24146;DHT22;12308;50.948;4.706;2022-10-31T05:19:21;12.50;99.90
24146;DHT22;12308;50.948;4.706;2022-10-31T05:21:47;12.50;99.90
24146;DHT22;12308;50.948;4.706;2022-10-31T05:24:13;12.50;99.90
24146;DHT22;12308;50.948;4.706;2022-10-31T05:26:38;12.40;99.90
24146;DHT22;12308;50.948;4.706;2022-10-31T05:29:04;12.30;99.90
24146;DHT22;12308;50.948;4.706;2022-10-31T05:31:29;12.40;99.90
24146;DHT22;12308;50.948;4.706;2022-10-31T05:33:55;12.50;99.90
24146;DHT22;12308;50.948;4.706;2022-10-31T05:36:21;12.40;99.90
24146;DHT22;12308;50.948;4.706;2022-10-31T05:38:46;12.40;99.90
24146;DHT22;12308;50.948;4.706;2022-10-31T05:41:12;12.40;99.90
24146;DHT22;12308;50.948;4.706;2022-10-31T05:43:38;12.50;99.90
24146;DHT22;12308;50.948;4.706;2022-10-31T05:46:03;12.50;99.90
24146;DHT22;12308;50.948;4.706;2022-10-31T05:48:29;12.50;99.90
24146;DHT22;12308;50.948;4.706;2022-10-31T05:50:54;12.40;99.90
24146;DHT22;12308;50.948;4.706;2022-10-31T05:53:20;12.50;99.90
24146;DHT22;12308;50.948;4.706;2022-10-31T05:55:46;12.50;99.90
24146;DHT22;12308;50.948;4.706;2022-10-31T05:58:12;12.60;99.90
24146;DHT22;12308;50.948;4.706;2022-10-31T06:00:38;12.50;99.90
24146;DHT22;12308;50.948;4.706;2022-10-31T06:03:08;12.40;99.90
24146;DHT22;12308;50.948;4.706;2022-10-31T06:05:33;12.40;99.90
24146;DHT22;12308;50.948;4.706;2022-10-31T06:07:59;12.30;99.90
24146;DHT22;12308;50.948;4.706;2022-10-31T06:10:25;12.30;99.90
24146;DHT22;12308;50.948;4.706;2022-10-31T06:12:51;12.20;99.90
24146;DHT22;12308;50.948;4.706;2022-10-31T06:15:17;12.30;99.90
24146;DHT22;12308;50.948;4.706;2022-10-31T06:17:43;12.30;99.90
24146;DHT22;12308;50.948;4.706;2022-10-31T06:20:09;12.40;99.90
24146;DHT22;12308;50.948;4.706;2022-10-31T06:22:34;12.50;99.90
24146;DHT22;12308;50.948;4.706;2022-10-31T06:25:00;12.60;99.90
24146;DHT22;12308;50.948;4.706;2022-10-31T06:27:26;12.70;99.90
24146;DHT22;12308;50.948;4.706;2022-10-31T06:29:52;12.70;99.90
24146;DHT22;12308;50.948;4.706;2022-10-31T06:32:18;12.80;99.90
24146;DHT22;12308;50.948;4.706;2022-10-31T06:34:44;12.80;99.90
24146;DHT22;12308;50.948;4.706;2022-10-31T06:37:11;12.80;99.90
24146;DHT22;12308;50.948;4.706;2022-10-31T06:39:37;12.90;99.90
24146;DHT22;12308;50.948;4.706;2022-10-31T06:42:04;12.90;99.90
24146;DHT22;12308;50.948;4.706;2022-10-31T06:44:30;12.90;99.90
24146;DHT22;12308;50.948;4.706;2022-10-31T06:46:56;12.90;99.90
24146;DHT22;12308;50.948;4.706;2022-10-31T06:49:21;12.90;99.90
24146;DHT22;12308;50.948;4.706;2022-10-31T06:51:48;12.90;99.90
24146;DHT22;12308;50.948;4.706;2022-10-31T06:54:14;12.80;99.90
24146;DHT22;12308;50.948;4.706;2022-10-31T06:56:40;12.80;99.90
24146;DHT22;12308;50.948;4.706;2022-10-31T06:59:05;12.80;99.90
24146;DHT22;12308;50.948;4.706;2022-10-31T07:01:31;12.90;99.90
24146;DHT22;12308;50.948;4.706;2022-10-31T07:03:57;13.00;99.90
24146;DHT22;12308;50.948;4.706;2022-10-31T07:06:23;13.20;99.90
24146;DHT22;12308;50.948;4.706;2022-10-31T07:08:48;13.20;99.90
24146;DHT22;12308;50.948;4.706;2022-10-31T07:11:14;13.30;99.90
24146;DHT22;12308;50.948;4.706;2022-10-31T07:13:39;13.30;99.90
24146;DHT22;12308;50.948;4.706;2022-10-31T07:16:05;13.30;99.90
24146;DHT22;12308;50.948;4.706;2022-10-31T07:18:32;13.40;99.90
24146;DHT22;12308;50.948;4.706;2022-10-31T07:20:58;13.50;99.90
24146;DHT22;12308;50.948;4.706;2022-10-31T07:23:24;13.50;99.90
24146;DHT22;12308;50.948;4.706;2022-10-31T07:25:55;13.60;99.90
24146;DHT22;12308;50.948;4.706;2022-10-31T07:28:21;13.60;99.90
24146;DHT22;12308;50.948;4.706;2022-10-31T07:30:50;13.60;99.90
24146;DHT22;12308;50.948;4.706;2022-10-31T07:33:16;13.70;99.90
24146;DHT22;12308;50.948;4.706;2022-10-31T07:35:42;13.80;99.90
24146;DHT22;12308;50.948;4.706;2022-10-31T07:38:11;13.70;99.90
24146;DHT22;12308;50.948;4.706;2022-10-31T07:40:38;13.60;99.90
24146;DHT22;12308;50.948;4.706;2022-10-31T07:43:04;13.70;99.90
24146;DHT22;12308;50.948;4.706;2022-10-31T07:45:29;13.70;99.90
24146;DHT22;12308;50.948;4.706;2022-10-31T07:47:55;13.80;99.90
24146;DHT22;12308;50.948;4.706;2022-10-31T07:50:28;13.80;99.90
24146;DHT22;12308;50.948;4.706;2022-10-31T07:53:05;13.90;99.90
24146;DHT22;12308;50.948;4.706;2022-10-31T07:55:32;14.00;99.90
24146;DHT22;12308;50.948;4.706;2022-10-31T07:58:06;14.10;99.90
24146;DHT22;12308;50.948;4.706;2022-10-31T08:00:34;14.20;99.90
24146;DHT22;12308;50.948;4.706;2022-10-31T08:03:03;14.20;99.90
24146;DHT22;12308;50.948;4.706;2022-10-31T08:05:30;14.20;99.90
24146;DHT22;12308;50.948;4.706;2022-10-31T08:07:56;14.30;99.90
24146;DHT22;12308;50.948;4.706;2022-10-31T08:10:23;14.40;99.90
24146;DHT22;12308;50.948;4.706;2022-10-31T08:13:00;14.50;99.90
24146;DHT22;12308;50.948;4.706;2022-10-31T08:15:26;14.60;99.90
24146;DHT22;12308;50.948;4.706;2022-10-31T08:17:51;14.70;99.90
24146;DHT22;12308;50.948;4.706;2022-10-31T08:20:17;14.80;99.90
24146;DHT22;12308;50.948;4.706;2022-10-31T08:22:43;15.00;99.90
24146;DHT22;12308;50.948;4.706;2022-10-31T08:25:08;14.90;99.90
24146;DHT22;12308;50.948;4.706;2022-10-31T08:27:34;14.90;99.90
24146;DHT22;12308;50.948;4.706;2022-10-31T08:30:00;15.00;99.90
24146;DHT22;12308;50.948;4.706;2022-10-31T08:32:25;15.10;99.90
24146;DHT22;12308;50.948;4.706;2022-10-31T08:34:51;15.00;99.90
24146;DHT22;12308;50.948;4.706;2022-10-31T08:37:17;14.90;99.90
24146;DHT22;12308;50.948;4.706;2022-10-31T08:39:48;14.90;99.90
24146;DHT22;12308;50.948;4.706;2022-10-31T08:42:13;14.90;99.90
24146;DHT22;12308;50.948;4.706;2022-10-31T08:44:39;14.90;99.90
24146;DHT22;12308;50.948;4.706;2022-10-31T08:47:04;15.00;99.90
24146;DHT22;12308;50.948;4.706;2022-10-31T08:49:30;15.20;99.90
24146;DHT22;12308;50.948;4.706;2022-10-31T08:51:56;15.10;99.90
24146;DHT22;12308;50.948;4.706;2022-10-31T08:54:21;15.10;99.90
24146;DHT22;12308;50.948;4.706;2022-10-31T08:56:47;15.00;99.90
24146;DHT22;12308;50.948;4.706;2022-10-31T08:59:13;15.10;99.90
24146;DHT22;12308;50.948;4.706;2022-10-31T09:01:38;15.10;99.90
24146;DHT22;12308;50.948;4.706;2022-10-31T09:04:04;15.10;99.90
24146;DHT22;12308;50.948;4.706;2022-10-31T09:06:29;15.10;99.90
24146;DHT22;12308;50.948;4.706;2022-10-31T09:08:55;15.20;99.90
24146;DHT22;12308;50.948;4.706;2022-10-31T09:11:21;15.20;99.90
24146;DHT22;12308;50.948;4.706;2022-10-31T09:13:46;15.20;99.90
24146;DHT22;12308;50.948;4.706;2022-10-31T09:16:12;15.40;99.90
24146;DHT22;12308;50.948;4.706;2022-10-31T09:18:37;15.40;99.90
24146;DHT22;12308;50.948;4.706;2022-10-31T09:21:03;15.30;99.90
24146;DHT22;12308;50.948;4.706;2022-10-31T09:23:29;15.30;99.90
24146;DHT22;12308;50.948;4.706;2022-10-31T09:25:55;15.30;99.90
24146;DHT22;12308;50.948;4.706;2022-10-31T09:28:22;15.30;99.90
24146;DHT22;12308;50.948;4.706;2022-10-31T09:30:50;15.40;99.90
24146;DHT22;12308;50.948;4.706;2022-10-31T09:33:17;15.50;99.90
24146;DHT22;12308;50.948;4.706;2022-10-31T09:35:43;15.60;99.90
24146;DHT22;12308;50.948;4.706;2022-10-31T09:38:14;15.60;99.90
24146;DHT22;12308;50.948;4.706;2022-10-31T09:40:41;15.60;99.90
24146;DHT22;12308;50.948;4.706;2022-10-31T09:51:05;15.80;99.90
24146;DHT22;12308;50.948;4.706;2022-10-31T09:53:39;16.00;99.90
24146;DHT22;12308;50.948;4.706;2022-10-31T09:56:14;16.30;99.90
24146;DHT22;12308;50.948;4.706;2022-10-31T09:58:49;16.30;99.90
24146;DHT22;12308;50.948;4.706;2022-10-31T10:01:30;16.30;99.90
24146;DHT22;12308;50.948;4.706;2022-10-31T10:04:51;16.10;99.90
24146;DHT22;12308;50.948;4.706;2022-10-31T10:06:49;16.00;99.90
24146;DHT22;12308;50.948;4.706;2022-10-31T10:09:16;16.10;99.90
24146;DHT22;12308;50.948;4.706;2022-10-31T10:18:20;16.50;99.90
24146;DHT22;12308;50.948;4.706;2022-10-31T10:21:19;16.60;99.90
24146;DHT22;12308;50.948;4.706;2022-10-31T10:26:38;16.80;99.90
24146;DHT22;12308;50.948;4.706;2022-10-31T10:31:38;17.00;99.90
24146;DHT22;12308;50.948;4.706;2022-10-31T10:34:18;17.10;99.90
24146;DHT22;12308;50.948;4.706;2022-10-31T10:36:54;17.20;99.90
24146;DHT22;12308;50.948;4.706;2022-10-31T10:39:32;17.70;99.90
24146;DHT22;12308;50.948;4.706;2022-10-31T10:42:00;17.80;99.90
24146;DHT22;12308;50.948;4.706;2022-10-31T10:44:47;17.60;99.90
24146;DHT22;12308;50.948;4.706;2022-10-31T10:47:41;17.60;99.90
24146;DHT22;12308;50.948;4.706;2022-10-31T10:50:23;17.90;99.90
24146;DHT22;12308;50.948;4.706;2022-10-31T10:53:06;17.90;99.90
24146;DHT22;12308;50.948;4.706;2022-10-31T10:55:56;17.90;99.90
24146;DHT22;12308;50.948;4.706;2022-10-31T10:58:24;17.40;99.90
24146;DHT22;12308;50.948;4.706;2022-10-31T11:00:52;17.50;99.90
24146;DHT22;12308;50.948;4.706;2022-10-31T11:03:18;17.40;99.90
24146;DHT22;12308;50.948;4.706;2022-10-31T11:05:48;17.50;99.90
24146;DHT22;12308;50.948;4.706;2022-10-31T11:08:31;17.70;99.90
24146;DHT22;12308;50.948;4.706;2022-10-31T11:13:49;18.20;99.90
24146;DHT22;12308;50.948;4.706;2022-10-31T11:18:53;18.40;99.90
24146;DHT22;12308;50.948;4.706;2022-10-31T11:21:27;18.40;99.90
24146;DHT22;12308;50.948;4.706;2022-10-31T11:24:17;18.40;99.90
24146;DHT22;12308;50.948;4.706;2022-10-31T11:26:45;18.50;99.90
24146;DHT22;12308;50.948;4.706;2022-10-31T11:29:23;18.70;99.90
24146;DHT22;12308;50.948;4.706;2022-10-31T11:31:55;18.80;99.90
24146;DHT22;12308;50.948;4.706;2022-10-31T11:34:32;19.00;99.90
24146;DHT22;12308;50.948;4.706;2022-10-31T11:37:09;19.10;99.90
24146;DHT22;12308;50.948;4.706;2022-10-31T11:39:41;18.90;99.90
24146;DHT22;12308;50.948;4.706;2022-10-31T11:42:08;18.90;99.90
24146;DHT22;12308;50.948;4.706;2022-10-31T11:44:33;18.90;99.90
24146;DHT22;12308;50.948;4.706;2022-10-31T11:47:04;19.10;99.90
24146;DHT22;12308;50.948;4.706;2022-10-31T11:52:08;19.20;99.90
24146;DHT22;12308;50.948;4.706;2022-10-31T11:54:49;19.30;99.90
24146;DHT22;12308;50.948;4.706;2022-10-31T11:57:42;19.30;99.90
24146;DHT22;12308;50.948;4.706;2022-10-31T12:02:46;19.40;99.90
24146;DHT22;12308;50.948;4.706;2022-10-31T12:05:24;19.40;99.90
24146;DHT22;12308;50.948;4.706;2022-10-31T12:07:51;19.50;99.90
24146;DHT22;12308;50.948;4.706;2022-10-31T12:10:21;19.50;99.90
24146;DHT22;12308;50.948;4.706;2022-10-31T12:15:32;19.70;99.90
24146;DHT22;12308;50.948;4.706;2022-10-31T12:40:12;19.60;99.90
24146;DHT22;12308;50.948;4.706;2022-10-31T12:51:58;19.20;99.90
24146;DHT22;12308;50.948;4.706;2022-10-31T12:57:27;19.30;99.90
24146;DHT22;12308;50.948;4.706;2022-10-31T13:02:33;19.30;99.90
24146;DHT22;12308;50.948;4.706;2022-10-31T13:07:54;19.30;99.90
24146;DHT22;12308;50.948;4.706;2022-10-31T13:10:43;19.30;99.90
24146;DHT22;12308;50.948;4.706;2022-10-31T13:13:14;19.50;99.90
24146;DHT22;12308;50.948;4.706;2022-10-31T13:15:55;19.30;99.90
24146;DHT22;12308;50.948;4.706;2022-10-31T13:20:53;19.30;99.90
24146;DHT22;12308;50.948;4.706;2022-10-31T13:23:26;19.40;99.90
24146;DHT22;12308;50.948;4.706;2022-10-31T13:25:55;19.40;99.90
24146;DHT22;12308;50.948;4.706;2022-10-31T13:28:29;19.40;99.90
24146;DHT22;12308;50.948;4.706;2022-10-31T13:30:55;19.60;99.90
24146;DHT22;12308;50.948;4.706;2022-10-31T13:33:54;19.50;99.90
24146;DHT22;12308;50.948;4.706;2022-10-31T13:36:31;19.70;99.90
24146;DHT22;12308;50.948;4.706;2022-10-31T13:46:41;20.00;99.90
24146;DHT22;12308;50.948;4.706;2022-10-31T13:51:50;19.60;99.90
24146;DHT22;12308;50.948;4.706;2022-10-31T13:54:48;19.50;99.90
24146;DHT22;12308;50.948;4.706;2022-10-31T13:57:30;19.40;99.90
24146;DHT22;12308;50.948;4.706;2022-10-31T14:00:00;19.20;99.90
24146;DHT22;12308;50.948;4.706;2022-10-31T14:02:32;19.20;99.90
24146;DHT22;12308;50.948;4.706;2022-10-31T14:05:06;19.20;99.90
24146;DHT22;12308;50.948;4.706;2022-10-31T14:07:43;19.10;99.90
24146;DHT22;12308;50.948;4.706;2022-10-31T14:10:21;19.30;99.90
24146;DHT22;12308;50.948;4.706;2022-10-31T14:12:48;19.20;99.90
24146;DHT22;12308;50.948;4.706;2022-10-31T14:15:24;19.20;99.90
24146;DHT22;12308;50.948;4.706;2022-10-31T14:18:05;19.00;99.90
24146;DHT22;12308;50.948;4.706;2022-10-31T14:20:36;19.00;99.90
24146;DHT22;12308;50.948;4.706;2022-10-31T14:25:52;19.00;99.90
24146;DHT22;12308;50.948;4.706;2022-10-31T14:28:21;18.90;99.90
24146;DHT22;12308;50.948;4.706;2022-10-31T14:30:52;18.90;99.90
24146;DHT22;12308;50.948;4.706;2022-10-31T14:33:19;18.80;99.90
24146;DHT22;12308;50.948;4.706;2022-10-31T14:36:01;18.70;99.90
24146;DHT22;12308;50.948;4.706;2022-10-31T14:45:16;19.00;99.90
24146;DHT22;12308;50.948;4.706;2022-10-31T14:52:36;18.80;99.90
24146;DHT22;12308;50.948;4.706;2022-10-31T14:55:06;18.60;99.90
24146;DHT22;12308;50.948;4.706;2022-10-31T14:57:36;18.60;99.90
24146;DHT22;12308;50.948;4.706;2022-10-31T15:00:06;18.70;99.90
24146;DHT22;12308;50.948;4.706;2022-10-31T15:05:09;18.70;99.90
24146;DHT22;12308;50.948;4.706;2022-10-31T15:07:35;18.60;99.90
24146;DHT22;12308;50.948;4.706;2022-10-31T15:10:18;18.80;99.90
24146;DHT22;12308;50.948;4.706;2022-10-31T15:12:44;19.00;99.90
24146;DHT22;12308;50.948;4.706;2022-10-31T15:15:14;18.90;99.90
24146;DHT22;12308;50.948;4.706;2022-10-31T15:17:57;18.80;99.90
24146;DHT22;12308;50.948;4.706;2022-10-31T15:20:26;18.70;99.90
24146;DHT22;12308;50.948;4.706;2022-10-31T15:22:54;18.80;99.90
24146;DHT22;12308;50.948;4.706;2022-10-31T15:25:23;18.70;99.90
24146;DHT22;12308;50.948;4.706;2022-10-31T15:27:50;18.50;99.90
24146;DHT22;12308;50.948;4.706;2022-10-31T15:30:22;18.40;99.90
24146;DHT22;12308;50.948;4.706;2022-10-31T15:32:48;18.60;99.90
24146;DHT22;12308;50.948;4.706;2022-10-31T15:35:23;18.50;99.90
24146;DHT22;12308;50.948;4.706;2022-10-31T15:37:52;18.40;99.90
24146;DHT22;12308;50.948;4.706;2022-10-31T15:40:19;18.30;99.90
24146;DHT22;12308;50.948;4.706;2022-10-31T15:42:53;18.20;99.90
24146;DHT22;12308;50.948;4.706;2022-10-31T15:45:23;18.10;99.90
24146;DHT22;12308;50.948;4.706;2022-10-31T15:47:59;18.00;99.90
24146;DHT22;12308;50.948;4.706;2022-10-31T15:52:54;17.90;99.90
24146;DHT22;12308;50.948;4.706;2022-10-31T15:55:25;17.80;99.90
24146;DHT22;12308;50.948;4.706;2022-10-31T15:57:58;17.80;99.90
24146;DHT22;12308;50.948;4.706;2022-10-31T16:00:27;17.70;99.90
24146;DHT22;12308;50.948;4.706;2022-10-31T16:06:20;17.70;99.90
24146;DHT22;12308;50.948;4.706;2022-10-31T16:08:48;17.70;99.90
24146;DHT22;12308;50.948;4.706;2022-10-31T16:11:22;17.70;99.90
24146;DHT22;12308;50.948;4.706;2022-10-31T16:14:00;17.60;99.90
24146;DHT22;12308;50.948;4.706;2022-10-31T16:16:28;17.50;99.90
24146;DHT22;12308;50.948;4.706;2022-10-31T16:18:55;17.40;99.90
24146;DHT22;12308;50.948;4.706;2022-10-31T16:21:31;17.30;99.90
24146;DHT22;12308;50.948;4.706;2022-10-31T16:24:04;17.20;99.90
24146;DHT22;12308;50.948;4.706;2022-10-31T16:26:30;17.20;99.90
24146;DHT22;12308;50.948;4.706;2022-10-31T16:28:58;17.20;99.90
24146;DHT22;12308;50.948;4.706;2022-10-31T16:31:39;17.20;99.90
24146;DHT22;12308;50.948;4.706;2022-10-31T16:34:19;17.20;99.90
24146;DHT22;12308;50.948;4.706;2022-10-31T16:36:45;17.20;99.90
24146;DHT22;12308;50.948;4.706;2022-10-31T16:39:11;17.10;99.90
24146;DHT22;12308;50.948;4.706;2022-10-31T16:41:40;17.10;99.90
24146;DHT22;12308;50.948;4.706;2022-10-31T16:44:18;17.00;99.90
24146;DHT22;12308;50.948;4.706;2022-10-31T16:46:44;16.90;99.90
24146;DHT22;12308;50.948;4.706;2022-10-31T16:49:10;16.90;99.90
24146;DHT22;12308;50.948;4.706;2022-10-31T16:51:36;16.80;99.90
24146;DHT22;12308;50.948;4.706;2022-10-31T16:54:02;16.80;99.90
24146;DHT22;12308;50.948;4.706;2022-10-31T16:56:30;16.80;99.90
24146;DHT22;12308;50.948;4.706;2022-10-31T16:58:57;16.60;99.90
24146;DHT22;12308;50.948;4.706;2022-10-31T17:01:24;16.40;99.90
24146;DHT22;12308;50.948;4.706;2022-10-31T17:03:49;16.40;99.90
24146;DHT22;12308;50.948;4.706;2022-10-31T17:06:15;16.40;99.90
24146;DHT22;12308;50.948;4.706;2022-10-31T17:08:41;16.40;99.90
24146;DHT22;12308;50.948;4.706;2022-10-31T17:11:15;16.40;99.90
24146;DHT22;12308;50.948;4.706;2022-10-31T17:13:41;16.40;99.90
24146;DHT22;12308;50.948;4.706;2022-10-31T17:16:07;16.50;99.90
24146;DHT22;12308;50.948;4.706;2022-10-31T17:18:33;16.50;99.90
24146;DHT22;12308;50.948;4.706;2022-10-31T17:21:01;16.50;99.90
24146;DHT22;12308;50.948;4.706;2022-10-31T17:23:27;16.50;99.90
24146;DHT22;12308;50.948;4.706;2022-10-31T17:25:54;16.50;99.90
24146;DHT22;12308;50.948;4.706;2022-10-31T17:28:19;16.70;99.90
24146;DHT22;12308;50.948;4.706;2022-10-31T17:30:45;16.70;99.90
24146;DHT22;12308;50.948;4.706;2022-10-31T17:33:13;16.80;99.90
24146;DHT22;12308;50.948;4.706;2022-10-31T17:35:40;16.80;99.90
24146;DHT22;12308;50.948;4.706;2022-10-31T17:38:06;16.90;99.90
24146;DHT22;12308;50.948;4.706;2022-10-31T17:40:32;16.80;99.90
24146;DHT22;12308;50.948;4.706;2022-10-31T17:42:58;16.70;99.90
24146;DHT22;12308;50.948;4.706;2022-10-31T17:45:25;16.70;99.90
24146;DHT22;12308;50.948;4.706;2022-10-31T17:47:52;16.70;99.90
24146;DHT22;12308;50.948;4.706;2022-10-31T17:50:24;16.70;99.90